createdAt,value
2022-11-10T00:00:00.588Z,712.4290
2022-11-10T00:00:11.800Z,711.6680
2022-11-10T00:00:22.988Z,711.6680
2022-11-10T00:00:34.189Z,710.9100
2022-11-10T00:00:45.387Z,710.1520
2022-11-10T00:00:56.586Z,711.6680
2022-11-10T00:01:07.631Z,709.3970
2022-11-10T00:01:18.691Z,710.9100
2022-11-10T00:01:29.879Z,710.9100
2022-11-10T00:01:41.066Z,707.1400
2022-11-10T00:01:52.274Z,710.9100
2022-11-10T00:02:03.468Z,710.9100
2022-11-10T00:02:14.675Z,712.4290
2022-11-10T00:02:25.880Z,710.9100
2022-11-10T00:02:37.070Z,708.6430
2022-11-10T00:02:48.266Z,706.3910
2022-11-10T00:02:59.467Z,706.3910
2022-11-10T00:03:10.506Z,709.3970
2022-11-10T00:03:21.815Z,707.8910
2022-11-10T00:03:33.117Z,711.6680
2022-11-10T00:03:44.350Z,707.1400
2022-11-10T00:03:55.477Z,707.8910
2022-11-10T00:04:06.697Z,703.4110
2022-11-10T00:04:17.968Z,704.8980
2022-11-10T00:04:29.079Z,705.6440
2022-11-10T00:04:40.107Z,706.3910
2022-11-10T00:04:51.178Z,708.6430
2022-11-10T00:05:02.220Z,706.3910
2022-11-10T00:05:13.267Z,706.3910
2022-11-10T00:05:24.429Z,706.3910
2022-11-10T00:05:35.627Z,707.1400
2022-11-10T00:05:46.828Z,704.8980
2022-11-10T00:05:58.026Z,707.8910
2022-11-10T00:06:09.228Z,704.8980
2022-11-10T00:06:20.276Z,706.3910
2022-11-10T00:06:31.685Z,703.4110
2022-11-10T00:06:42.903Z,706.3910
2022-11-10T00:06:54.093Z,707.8910
2022-11-10T00:07:05.359Z,704.8980
2022-11-10T00:07:16.438Z,704.1530
2022-11-10T00:07:27.629Z,701.1920
2022-11-10T00:07:38.827Z,706.3910
2022-11-10T00:07:50.028Z,706.3910
2022-11-10T00:08:01.267Z,706.3910
2022-11-10T00:08:12.428Z,707.8910
2022-11-10T00:08:23.653Z,709.3970
2022-11-10T00:08:34.721Z,710.1520
2022-11-10T00:08:46.018Z,708.6430
2022-11-10T00:08:57.229Z,708.6430
2022-11-10T00:09:08.471Z,710.9100
2022-11-10T00:09:19.706Z,709.3970
2022-11-10T00:09:30.757Z,710.1520
2022-11-10T00:09:41.828Z,712.4290
2022-11-10T00:09:52.936Z,713.9540
2022-11-10T00:10:04.109Z,712.4290
2022-11-10T00:10:15.307Z,715.4860
2022-11-10T00:10:26.511Z,712.4290
2022-11-10T00:10:37.558Z,715.4860
2022-11-10T00:10:48.587Z,714.7190
2022-11-10T00:10:59.791Z,724.8190
2022-11-10T00:11:10.987Z,717.0250
2022-11-10T00:11:22.191Z,713.9540
2022-11-10T00:11:33.230Z,724.8190
2022-11-10T00:11:44.267Z,720.1220
2022-11-10T00:11:55.467Z,720.1220
2022-11-10T00:12:06.677Z,720.1220
2022-11-10T00:12:17.867Z,724.0320
2022-11-10T00:12:28.920Z,720.1220
2022-11-10T00:12:39.987Z,725.6070
2022-11-10T00:12:51.149Z,724.8190
2022-11-10T00:13:02.350Z,726.3980
2022-11-10T00:13:13.548Z,723.2460
2022-11-10T00:13:24.785Z,724.8190
2022-11-10T00:13:35.961Z,727.1900
2022-11-10T00:13:47.147Z,726.3980
2022-11-10T00:13:58.347Z,728.7790
2022-11-10T00:14:09.547Z,728.7790
2022-11-10T00:14:20.748Z,727.9840
2022-11-10T00:14:31.818Z,729.5770
2022-11-10T00:14:42.878Z,732.7840
2022-11-10T00:14:54.058Z,729.5770
2022-11-10T00:15:05.262Z,730.3760
2022-11-10T00:15:16.428Z,733.5900
2022-11-10T00:15:27.626Z,726.3980
2022-11-10T00:15:38.827Z,737.6470
2022-11-10T00:15:50.027Z,734.3980
2022-11-10T00:16:01.227Z,736.0190
2022-11-10T00:16:12.427Z,734.3980
2022-11-10T00:16:23.631Z,736.8320
2022-11-10T00:16:34.677Z,731.9790
2022-11-10T00:16:45.718Z,740.1030
2022-11-10T00:16:56.909Z,738.4640
2022-11-10T00:17:08.103Z,740.9260
2022-11-10T00:17:19.313Z,739.2830
2022-11-10T00:17:30.514Z,742.5760
2022-11-10T00:17:41.588Z,741.7500
2022-11-10T00:17:52.658Z,742.5760
2022-11-10T00:18:03.786Z,744.2330
2022-11-10T00:18:14.827Z,744.2330
2022-11-10T00:18:25.877Z,747.4800
2022-11-10T00:18:37.073Z,748.3180
2022-11-10T00:18:48.123Z,747.0620
2022-11-10T00:18:59.186Z,749.1580
2022-11-10T00:19:10.349Z,746.2270
2022-11-10T00:19:21.405Z,751.2660
2022-11-10T00:19:32.437Z,749.5790
2022-11-10T00:19:43.626Z,752.5370
2022-11-10T00:19:54.713Z,750.8440
2022-11-10T00:20:05.778Z,751.6890
2022-11-10T00:20:16.908Z,755.0900
2022-11-10T00:20:28.108Z,755.5180
2022-11-10T00:20:39.307Z,755.9460
2022-11-10T00:20:50.369Z,753.8110
2022-11-10T00:21:01.429Z,758.0920
2022-11-10T00:21:12.589Z,758.9540
2022-11-10T00:21:23.787Z,756.8030
2022-11-10T00:21:34.838Z,752.9610
2022-11-10T00:21:45.878Z,760.6840
2022-11-10T00:21:57.072Z,757.2320
2022-11-10T00:22:08.117Z,761.1170
2022-11-10T00:22:19.177Z,761.9860
2022-11-10T00:22:30.343Z,764.6050
2022-11-10T00:22:41.546Z,761.9860
2022-11-10T00:22:52.747Z,766.8010
2022-11-10T00:23:03.948Z,767.2410
2022-11-10T00:23:15.147Z,765.9210
2022-11-10T00:23:26.371Z,767.2410
2022-11-10T00:23:37.547Z,771.2300
2022-11-10T00:23:48.752Z,770.3400
2022-11-10T00:23:59.948Z,770.7850
2022-11-10T00:24:10.993Z,768.1240
2022-11-10T00:24:22.039Z,767.6830
2022-11-10T00:24:33.232Z,773.0170
2022-11-10T00:24:44.427Z,767.6830
2022-11-10T00:24:55.648Z,772.1230
2022-11-10T00:25:06.831Z,773.4650
2022-11-10T00:25:18.036Z,774.3620
2022-11-10T00:25:29.229Z,774.8110
2022-11-10T00:25:40.427Z,775.2610
2022-11-10T00:25:51.627Z,773.4650
2022-11-10T00:26:02.827Z,774.3620
2022-11-10T00:26:13.865Z,777.0660
2022-11-10T00:26:24.908Z,778.4260
2022-11-10T00:26:35.967Z,773.0170
2022-11-10T00:26:47.018Z,778.8800
2022-11-10T00:26:58.192Z,773.9130
2022-11-10T00:27:09.389Z,777.5190
2022-11-10T00:27:20.438Z,778.8800
2022-11-10T00:27:31.507Z,784.8320
2022-11-10T00:27:42.667Z,783.9110
2022-11-10T00:27:53.867Z,784.3710
2022-11-10T00:28:05.071Z,784.3710
2022-11-10T00:28:16.158Z,782.9910
2022-11-10T00:28:27.227Z,786.6820
2022-11-10T00:28:38.347Z,779.7900
2022-11-10T00:28:49.558Z,787.6110
2022-11-10T00:29:00.692Z,787.1460
2022-11-10T00:29:11.771Z,785.2940
2022-11-10T00:29:22.827Z,786.2190
2022-11-10T00:29:33.925Z,790.4090
2022-11-10T00:29:44.977Z,794.6430
2022-11-10T00:29:56.140Z,789.0070
2022-11-10T00:30:07.307Z,790.8770
2022-11-10T00:30:18.367Z,789.4740
2022-11-10T00:30:29.388Z,789.4740
2022-11-10T00:30:44.484Z,795.5900
2022-11-10T00:30:57.548Z,782.0740
2022-11-10T00:31:08.746Z,784.3710
2022-11-10T00:31:19.787Z,784.3710
2022-11-10T00:31:30.834Z,792.7550
2022-11-10T00:31:41.867Z,788.5410
2022-11-10T00:31:52.916Z,789.4740
2022-11-10T00:32:04.108Z,795.5900
2022-11-10T00:32:15.309Z,789.0070
2022-11-10T00:32:26.516Z,792.2850
2022-11-10T00:32:37.711Z,788.0760
2022-11-10T00:32:48.906Z,789.0070
2022-11-10T00:33:00.107Z,795.1160
2022-11-10T00:33:11.309Z,797.9680
2022-11-10T00:33:22.739Z,798.4450
2022-11-10T00:33:34.459Z,792.7550
2022-11-10T00:33:45.548Z,796.5390
2022-11-10T00:33:56.748Z,798.4450
2022-11-10T00:34:07.946Z,796.5390
2022-11-10T00:34:18.988Z,795.5900
2022-11-10T00:34:30.028Z,800.8400
2022-11-10T00:34:41.228Z,800.8400
2022-11-10T00:34:52.426Z,797.4910
2022-11-10T00:35:03.658Z,800.3600
2022-11-10T00:35:14.827Z,801.3210
2022-11-10T00:35:26.032Z,800.8400
2022-11-10T00:35:38.007Z,803.2490
2022-11-10T00:35:49.058Z,804.2170
2022-11-10T00:36:00.267Z,801.3210
2022-11-10T00:36:11.467Z,806.1590
2022-11-10T00:36:22.658Z,801.8020
2022-11-10T00:36:33.873Z,804.2170
2022-11-10T00:36:45.067Z,807.1340
2022-11-10T00:36:56.267Z,798.4450
2022-11-10T00:37:07.456Z,807.6230
2022-11-10T00:37:18.673Z,807.1340
2022-11-10T00:37:29.867Z,801.3210
2022-11-10T00:37:40.907Z,807.1340
2022-11-10T00:37:51.960Z,814.5210
2022-11-10T00:38:03.147Z,814.5210
2022-11-10T00:38:14.348Z,804.2170
2022-11-10T00:38:25.548Z,807.1340
2022-11-10T00:38:36.772Z,810.0730
2022-11-10T00:38:47.958Z,811.5500
2022-11-10T00:38:59.147Z,809.5820
2022-11-10T00:39:10.343Z,815.0180
2022-11-10T00:39:21.547Z,809.0910
2022-11-10T00:39:32.748Z,812.0440
2022-11-10T00:39:43.788Z,805.1870
2022-11-10T00:39:54.836Z,813.0330
2022-11-10T00:40:06.054Z,810.5650
2022-11-10T00:40:17.217Z,813.5280
2022-11-10T00:40:28.430Z,814.5210
2022-11-10T00:40:39.628Z,816.0150
2022-11-10T00:40:50.827Z,815.0180
2022-11-10T00:41:02.035Z,813.0330
2022-11-10T00:41:13.227Z,818.0150
2022-11-10T00:41:24.427Z,818.0150
2022-11-10T00:41:35.626Z,814.5210
2022-11-10T00:41:46.678Z,818.0150
2022-11-10T00:41:57.726Z,820.0250
2022-11-10T00:42:08.908Z,822.0440
2022-11-10T00:42:19.987Z,820.0250
2022-11-10T00:42:31.049Z,825.6030
2022-11-10T00:42:42.181Z,819.5210
2022-11-10T00:42:53.219Z,822.0440
2022-11-10T00:43:04.271Z,822.0440
2022-11-10T00:43:15.467Z,823.0580
2022-11-10T00:43:27.101Z,827.1380
2022-11-10T00:43:38.227Z,822.0440
2022-11-10T00:43:49.267Z,824.0740
2022-11-10T00:44:00.329Z,824.5830
2022-11-10T00:44:11.467Z,827.1380
2022-11-10T00:44:22.674Z,825.0930
2022-11-10T00:44:33.872Z,823.0580
2022-11-10T00:44:45.073Z,822.0440
2022-11-10T00:44:56.269Z,826.6250
2022-11-10T00:45:07.504Z,828.1640
2022-11-10T00:45:18.666Z,827.1380
2022-11-10T00:45:29.718Z,827.1380
2022-11-10T00:45:40.797Z,829.1930
2022-11-10T00:45:51.948Z,828.1640
2022-11-10T00:46:03.003Z,830.7410
2022-11-10T00:46:14.058Z,829.1930
2022-11-10T00:46:25.108Z,825.0930
2022-11-10T00:46:36.147Z,831.7760
2022-11-10T00:46:47.312Z,829.7080
2022-11-10T00:46:58.518Z,829.1930
2022-11-10T00:47:09.567Z,830.2240
2022-11-10T00:47:20.628Z,831.2580
2022-11-10T00:47:31.790Z,833.3330
2022-11-10T00:47:42.988Z,829.1930
2022-11-10T00:47:54.189Z,835.4190
2022-11-10T00:48:05.387Z,831.2580
2022-11-10T00:48:16.595Z,832.8130
2022-11-10T00:48:27.628Z,824.0740
2022-11-10T00:48:38.667Z,830.7410
2022-11-10T00:48:49.868Z,833.3330
2022-11-10T00:49:01.067Z,828.6780
2022-11-10T00:49:12.269Z,833.3330
2022-11-10T00:49:23.474Z,835.4190
2022-11-10T00:49:34.668Z,831.2580
2022-11-10T00:49:45.871Z,841.7400
2022-11-10T00:49:57.057Z,834.8970
2022-11-10T00:50:08.296Z,832.2940
2022-11-10T00:50:19.349Z,838.5680
2022-11-10T00:50:30.397Z,840.6800
2022-11-10T00:50:41.552Z,835.4190
2022-11-10T00:50:52.747Z,834.3750
2022-11-10T00:51:03.957Z,834.3750
2022-11-10T00:51:15.148Z,836.4660
2022-11-10T00:51:26.346Z,836.9910
2022-11-10T00:51:37.547Z,836.9910
2022-11-10T00:51:48.748Z,836.4660
2022-11-10T00:51:59.950Z,839.6230
2022-11-10T00:52:11.147Z,839.0950
2022-11-10T00:52:22.199Z,838.0410
2022-11-10T00:52:33.238Z,843.3350
2022-11-10T00:52:44.447Z,840.1510
2022-11-10T00:52:55.509Z,840.6800
2022-11-10T00:53:06.570Z,841.7400
2022-11-10T00:53:17.710Z,843.3350
2022-11-10T00:53:28.748Z,839.6230
2022-11-10T00:53:39.800Z,841.7400
2022-11-10T00:53:50.880Z,842.8030
2022-11-10T00:54:01.928Z,838.5680
2022-11-10T00:54:13.069Z,846.0080
2022-11-10T00:54:24.267Z,849.2370
2022-11-10T00:54:35.309Z,844.9370
2022-11-10T00:54:46.357Z,846.0080
2022-11-10T00:54:57.553Z,846.0080
2022-11-10T00:55:08.687Z,839.6230
2022-11-10T00:55:19.747Z,844.9370
2022-11-10T00:55:30.838Z,848.6970
2022-11-10T00:55:41.897Z,848.6970
2022-11-10T00:55:52.927Z,850.3180
2022-11-10T00:56:04.109Z,848.6970
2022-11-10T00:56:15.308Z,842.8030
2022-11-10T00:56:26.508Z,850.3180
2022-11-10T00:56:37.708Z,847.0810
2022-11-10T00:56:48.908Z,846.0080
2022-11-10T00:57:00.111Z,847.6190
2022-11-10T00:57:11.159Z,848.1580
2022-11-10T00:57:22.198Z,841.7400
2022-11-10T00:57:33.386Z,851.4030
2022-11-10T00:57:44.588Z,847.6190
2022-11-10T00:57:55.797Z,849.2370
2022-11-10T00:58:06.987Z,848.6970
2022-11-10T00:58:18.028Z,842.2710
2022-11-10T00:58:29.107Z,849.2370
2022-11-10T00:58:40.267Z,850.3180
2022-11-10T00:58:51.308Z,843.8690
2022-11-10T00:59:02.365Z,850.3180
2022-11-10T00:59:13.417Z,847.0810
2022-11-10T00:59:24.488Z,849.7770
2022-11-10T00:59:35.627Z,849.2370
2022-11-10T00:59:46.829Z,853.0350
2022-11-10T00:59:57.869Z,850.3180
2022-11-10T01:00:08.967Z,852.4900
2022-11-10T01:00:20.108Z,846.5440
2022-11-10T01:00:31.308Z,860.1800
2022-11-10T01:00:42.567Z,856.8680
2022-11-10T01:00:53.749Z,854.6730
2022-11-10T01:01:05.022Z,851.9460
2022-11-10T01:01:16.160Z,851.4030
2022-11-10T01:01:27.399Z,847.6190
2022-11-10T01:01:38.610Z,847.0810
2022-11-10T01:01:49.697Z,851.4030
2022-11-10T01:02:00.747Z,863.5190
2022-11-10T01:02:11.787Z,849.7770
2022-11-10T01:02:22.989Z,854.1270
2022-11-10T01:02:34.118Z,855.7690
2022-11-10T01:02:45.189Z,852.4900
2022-11-10T01:02:56.270Z,854.6730
2022-11-10T01:03:07.469Z,860.7350
2022-11-10T01:03:18.881Z,856.3180
2022-11-10T01:03:30.187Z,854.1270
2022-11-10T01:03:41.396Z,858.5210
2022-11-10T01:03:52.590Z,854.1270
2022-11-10T01:04:03.628Z,855.7690
2022-11-10T01:04:14.678Z,850.8600
2022-11-10T01:04:25.887Z,861.8460
2022-11-10T01:04:37.072Z,859.0730
2022-11-10T01:04:48.268Z,859.6270
2022-11-10T01:04:59.469Z,857.9690
2022-11-10T01:05:10.705Z,859.0730
2022-11-10T01:05:21.757Z,857.9690
2022-11-10T01:05:32.817Z,866.3210
2022-11-10T01:05:43.948Z,855.7690
2022-11-10T01:05:55.150Z,860.7350
2022-11-10T01:06:06.188Z,860.1800
2022-11-10T01:06:17.247Z,860.1800
2022-11-10T01:06:28.307Z,862.9610
2022-11-10T01:06:39.582Z,864.6370
2022-11-10T01:06:50.702Z,861.8460
2022-11-10T01:07:01.859Z,862.4030
2022-11-10T01:07:12.985Z,859.0730
2022-11-10T01:07:24.117Z,854.1270
2022-11-10T01:07:35.318Z,863.5190
2022-11-10T01:07:46.511Z,856.8680
2022-11-10T01:07:57.708Z,861.2900
2022-11-10T01:08:08.915Z,863.5190
2022-11-10T01:08:20.107Z,862.4030
2022-11-10T01:08:31.158Z,861.2900
2022-11-10T01:08:42.232Z,865.7590
2022-11-10T01:08:53.423Z,863.5190
2022-11-10T01:09:04.587Z,862.4030
2022-11-10T01:09:15.787Z,864.6370
2022-11-10T01:09:26.987Z,855.2210
2022-11-10T01:09:38.189Z,857.9690
2022-11-10T01:09:49.388Z,860.1800
2022-11-10T01:10:00.579Z,860.7350
2022-11-10T01:10:11.908Z,866.8830
2022-11-10T01:10:22.993Z,864.6370
2022-11-10T01:10:34.202Z,862.9610
2022-11-10T01:10:45.388Z,865.7590
2022-11-10T01:10:56.595Z,864.6370
2022-11-10T01:11:07.787Z,861.2900
2022-11-10T01:11:18.988Z,868.0100
2022-11-10T01:11:30.027Z,862.4030
2022-11-10T01:11:41.068Z,867.4460
2022-11-10T01:11:52.268Z,866.8830
2022-11-10T01:12:03.475Z,865.1980
2022-11-10T01:12:14.667Z,868.0100
2022-11-10T01:12:25.707Z,865.7590
2022-11-10T01:12:36.757Z,866.8830
2022-11-10T01:12:47.817Z,860.1800
2022-11-10T01:12:58.877Z,872.5490
2022-11-10T01:13:10.026Z,868.0100
2022-11-10T01:13:21.614Z,868.5750
2022-11-10T01:13:33.098Z,867.4460
2022-11-10T01:13:44.169Z,871.9790
2022-11-10T01:13:55.221Z,871.4100
2022-11-10T01:14:06.338Z,876.5590
2022-11-10T01:14:17.388Z,870.2740
2022-11-10T01:14:28.442Z,865.1980
2022-11-10T01:14:39.634Z,877.1350
2022-11-10T01:14:50.669Z,871.4100
2022-11-10T01:15:01.718Z,870.2740
2022-11-10T01:15:13.941Z,875.4100
2022-11-10T01:15:27.801Z,877.1350
2022-11-10T01:15:39.168Z,861.2900
2022-11-10T01:15:50.348Z,866.8830
2022-11-10T01:16:01.554Z,866.3210
2022-11-10T01:16:12.589Z,871.9790
2022-11-10T01:16:23.637Z,873.6910
2022-11-10T01:16:34.828Z,871.4100
2022-11-10T01:16:46.029Z,865.1980
2022-11-10T01:16:57.229Z,869.1410
2022-11-10T01:17:08.298Z,874.2630
2022-11-10T01:17:19.355Z,878.2890
2022-11-10T01:17:30.510Z,878.2890
2022-11-10T01:17:41.709Z,869.1410
2022-11-10T01:17:52.912Z,874.2630
2022-11-10T01:18:04.107Z,874.2630
2022-11-10T01:18:15.308Z,880.6070
2022-11-10T01:18:26.510Z,870.2740
2022-11-10T01:18:37.708Z,874.8360
2022-11-10T01:18:48.750Z,875.4100
2022-11-10T01:18:59.809Z,877.1350
2022-11-10T01:19:10.994Z,874.8360
2022-11-10T01:19:22.038Z,881.1880
2022-11-10T01:19:33.104Z,873.1200
2022-11-10T01:19:44.268Z,882.3530
2022-11-10T01:19:55.307Z,880.0260
2022-11-10T01:20:06.358Z,872.5490
2022-11-10T01:20:17.578Z,880.0260
2022-11-10T01:20:28.638Z,882.9370
2022-11-10T01:20:39.708Z,881.1880
2022-11-10T01:20:50.829Z,887.6330
2022-11-10T01:21:02.042Z,881.1880
2022-11-10T01:21:13.230Z,881.7700
2022-11-10T01:21:24.428Z,880.0260
2022-11-10T01:21:35.468Z,877.1350
2022-11-10T01:21:46.538Z,880.6070
2022-11-10T01:21:57.708Z,882.3530
2022-11-10T01:22:08.909Z,882.9370
2022-11-10T01:22:20.107Z,879.4470
2022-11-10T01:22:31.314Z,882.9370
2022-11-10T01:22:42.510Z,879.4470
2022-11-10T01:22:53.714Z,881.1880
2022-11-10T01:23:05.267Z,880.0260
2022-11-10T01:23:16.777Z,887.0430
2022-11-10T01:23:27.958Z,885.2790
2022-11-10T01:23:39.147Z,886.4540
2022-11-10T01:23:50.349Z,880.6070
2022-11-10T01:24:01.648Z,885.2790
2022-11-10T01:24:12.747Z,887.6330
2022-11-10T01:24:23.947Z,888.2240
2022-11-10T01:24:35.147Z,882.3530
2022-11-10T01:24:46.355Z,882.9370
2022-11-10T01:24:57.544Z,885.8660
2022-11-10T01:25:08.754Z,893.5740
2022-11-10T01:25:19.832Z,888.8150
2022-11-10T01:25:30.878Z,888.8150
2022-11-10T01:25:42.028Z,890.0000
2022-11-10T01:25:53.228Z,885.2790
2022-11-10T01:26:04.428Z,889.4070
2022-11-10T01:26:15.629Z,890.0000
2022-11-10T01:26:26.829Z,890.0000
2022-11-10T01:26:38.034Z,891.7840
2022-11-10T01:26:49.227Z,888.8150
2022-11-10T01:27:00.424Z,893.5740
2022-11-10T01:27:11.627Z,892.3800
2022-11-10T01:27:22.834Z,892.9770
2022-11-10T01:27:33.867Z,889.4070
2022-11-10T01:27:44.920Z,890.0000
2022-11-10T01:27:56.107Z,897.7810
2022-11-10T01:28:07.147Z,896.5750
2022-11-10T01:28:18.188Z,890.0000
2022-11-10T01:28:29.394Z,894.7720
2022-11-10T01:28:40.427Z,895.9730
2022-11-10T01:28:51.468Z,892.9770
2022-11-10T01:29:02.669Z,896.5750
2022-11-10T01:29:13.707Z,895.9730
2022-11-10T01:29:24.759Z,899.5960
2022-11-10T01:29:35.951Z,894.7720
2022-11-10T01:29:46.987Z,900.8100
2022-11-10T01:29:58.039Z,899.5960
2022-11-10T01:30:09.229Z,892.9770
2022-11-10T01:30:20.486Z,899.5960
2022-11-10T01:30:31.619Z,897.1770
2022-11-10T01:30:42.828Z,897.1770
2022-11-10T01:30:54.027Z,901.4180
2022-11-10T01:31:05.235Z,899.5960
2022-11-10T01:31:16.423Z,900.8100
2022-11-10T01:31:27.659Z,894.7720
2022-11-10T01:31:38.829Z,898.9900
2022-11-10T01:31:49.875Z,898.3850
2022-11-10T01:32:00.907Z,903.2480
2022-11-10T01:32:12.115Z,897.7810
2022-11-10T01:32:23.149Z,895.9730
2022-11-10T01:32:34.188Z,898.3850
2022-11-10T01:32:45.388Z,894.1730
2022-11-10T01:32:56.428Z,904.4720
2022-11-10T01:33:07.467Z,906.9290
2022-11-10T01:33:18.774Z,904.4720
2022-11-10T01:33:29.869Z,904.4720
2022-11-10T01:33:41.064Z,906.9290
2022-11-10T01:33:52.267Z,901.4180
2022-11-10T01:34:03.470Z,898.3850
2022-11-10T01:34:14.667Z,898.3850
2022-11-10T01:34:25.858Z,905.6990
2022-11-10T01:34:37.067Z,904.4720
2022-11-10T01:34:48.274Z,901.4180
2022-11-10T01:34:59.318Z,896.5750
2022-11-10T01:35:10.387Z,902.0270
2022-11-10T01:35:21.576Z,906.9290
2022-11-10T01:35:32.748Z,906.9290
2022-11-10T01:35:43.953Z,908.1630
2022-11-10T01:35:55.148Z,906.3140
2022-11-10T01:36:06.359Z,905.6990
2022-11-10T01:36:17.549Z,897.7810
2022-11-10T01:36:28.737Z,900.8100
2022-11-10T01:36:39.948Z,906.9290
2022-11-10T01:36:51.149Z,900.8100
2022-11-10T01:37:02.188Z,903.8590
2022-11-10T01:37:13.227Z,907.5460
2022-11-10T01:37:24.427Z,906.9290
2022-11-10T01:37:35.628Z,905.0850
2022-11-10T01:37:46.828Z,906.3140
2022-11-10T01:37:58.028Z,906.9290
2022-11-10T01:38:09.235Z,901.4180
2022-11-10T01:38:20.434Z,908.1630
2022-11-10T01:38:31.629Z,907.5460
2022-11-10T01:38:42.827Z,906.9290
2022-11-10T01:38:54.027Z,908.1630
2022-11-10T01:39:05.123Z,909.4010
2022-11-10T01:39:16.157Z,906.9290
2022-11-10T01:39:27.308Z,907.5460
2022-11-10T01:39:38.508Z,905.6990
2022-11-10T01:39:49.708Z,901.4180
2022-11-10T01:40:01.062Z,903.8590
2022-11-10T01:40:12.223Z,907.5460
2022-11-10T01:40:23.401Z,910.0200
2022-11-10T01:40:34.657Z,909.4010
2022-11-10T01:40:45.862Z,900.2020
2022-11-10T01:40:56.929Z,910.0200
2022-11-10T01:41:07.996Z,910.6410
2022-11-10T01:41:19.059Z,909.4010
2022-11-10T01:41:30.188Z,905.6990
2022-11-10T01:41:41.388Z,904.4720
2022-11-10T01:41:52.589Z,908.1630
2022-11-10T01:42:03.788Z,912.5090
2022-11-10T01:42:14.999Z,916.2660
2022-11-10T01:42:26.187Z,910.0200
2022-11-10T01:42:37.385Z,908.7810
2022-11-10T01:42:48.597Z,913.1330
2022-11-10T01:42:59.790Z,909.4010
2022-11-10T01:43:10.838Z,906.9290
2022-11-10T01:43:22.188Z,905.0850
2022-11-10T01:43:33.762Z,905.6990
2022-11-10T01:43:44.822Z,907.5460
2022-11-10T01:43:55.889Z,911.8850
2022-11-10T01:44:06.989Z,902.0270
2022-11-10T01:44:18.188Z,908.7810
2022-11-10T01:44:29.230Z,915.0100
2022-11-10T01:44:40.268Z,911.8850
2022-11-10T01:44:51.468Z,911.8850
2022-11-10T01:45:02.674Z,911.2630
2022-11-10T01:45:13.716Z,914.3840
2022-11-10T01:45:24.788Z,905.6990
2022-11-10T01:45:35.951Z,914.3840
2022-11-10T01:45:47.148Z,910.0200
2022-11-10T01:45:58.348Z,909.4010
2022-11-10T01:46:09.547Z,914.3840
2022-11-10T01:46:20.747Z,911.2630
2022-11-10T01:46:31.947Z,916.8960
2022-11-10T01:46:43.148Z,913.1330
2022-11-10T01:46:54.349Z,915.6380
2022-11-10T01:47:05.547Z,915.6380
2022-11-10T01:47:16.598Z,916.2660
2022-11-10T01:47:27.669Z,916.8960
2022-11-10T01:47:38.828Z,914.3840
2022-11-10T01:47:49.869Z,915.6380
2022-11-10T01:48:00.907Z,915.6380
2022-11-10T01:48:12.109Z,915.6380
2022-11-10T01:48:23.147Z,913.1330
2022-11-10T01:48:34.197Z,915.0100
2022-11-10T01:48:45.388Z,909.4010
2022-11-10T01:48:56.588Z,907.5460
2022-11-10T01:49:07.788Z,912.5090
2022-11-10T01:49:18.988Z,915.6380
2022-11-10T01:49:30.188Z,911.8850
2022-11-10T01:49:41.388Z,910.6410
2022-11-10T01:49:52.594Z,902.6370
2022-11-10T01:50:03.789Z,904.4720
2022-11-10T01:50:14.988Z,908.7810
2022-11-10T01:50:26.062Z,916.8960
2022-11-10T01:50:37.129Z,916.2660
2022-11-10T01:50:48.270Z,912.5090
2022-11-10T01:50:59.469Z,918.1570
2022-11-10T01:51:10.668Z,913.1330
2022-11-10T01:51:21.867Z,918.1570
2022-11-10T01:51:33.068Z,914.3840
2022-11-10T01:51:44.268Z,915.6380
2022-11-10T01:51:55.337Z,908.1630
2022-11-10T01:52:06.410Z,911.8850
2022-11-10T01:52:17.555Z,917.5260
2022-11-10T01:52:28.748Z,919.4210
2022-11-10T01:52:39.951Z,915.0100
2022-11-10T01:52:50.999Z,916.8960
2022-11-10T01:53:02.047Z,915.6380
2022-11-10T01:53:13.138Z,919.4210
2022-11-10T01:53:24.415Z,911.8850
2022-11-10T01:53:35.659Z,915.6380
2022-11-10T01:53:46.828Z,919.4210
2022-11-10T01:53:58.029Z,910.6410
2022-11-10T01:54:09.259Z,915.0100
2022-11-10T01:54:20.428Z,913.1330
2022-11-10T01:54:31.627Z,912.5090
2022-11-10T01:54:42.835Z,914.3840
2022-11-10T01:54:54.049Z,918.1570
2022-11-10T01:55:05.114Z,915.6380
2022-11-10T01:55:16.172Z,916.2660
2022-11-10T01:55:27.356Z,918.1570
2022-11-10T01:55:38.387Z,913.7580
2022-11-10T01:55:49.438Z,907.5460
2022-11-10T01:56:00.479Z,918.1570
2022-11-10T01:56:11.529Z,915.0100
2022-11-10T01:56:22.668Z,914.3840
2022-11-10T01:56:33.874Z,911.8850
2022-11-10T01:56:44.908Z,916.2660
2022-11-10T01:56:55.958Z,914.3840
2022-11-10T01:57:07.148Z,915.6380
2022-11-10T01:57:18.349Z,915.0100
2022-11-10T01:57:29.548Z,915.0100
2022-11-10T01:57:40.753Z,915.6380
2022-11-10T01:57:51.802Z,912.5090
2022-11-10T01:58:02.839Z,916.8960
2022-11-10T01:58:14.028Z,913.7580
2022-11-10T01:58:25.234Z,911.8850
2022-11-10T01:58:36.438Z,913.1330
2022-11-10T01:58:47.628Z,913.1330
2022-11-10T01:58:58.829Z,910.6410
2022-11-10T01:59:10.034Z,916.2660
2022-11-10T01:59:21.236Z,916.2660
2022-11-10T01:59:32.418Z,910.6410
2022-11-10T01:59:43.631Z,906.9290
2022-11-10T01:59:54.836Z,915.6380
2022-11-10T02:00:05.868Z,913.7580
2022-11-10T02:00:16.917Z,913.7580
2022-11-10T02:00:28.215Z,910.6410
2022-11-10T02:00:39.317Z,908.1630
2022-11-10T02:00:50.405Z,911.2630
2022-11-10T02:01:01.498Z,910.0200
2022-11-10T02:01:12.654Z,915.6380
2022-11-10T02:01:23.788Z,915.6380
2022-11-10T02:01:34.991Z,915.0100
2022-11-10T02:01:46.199Z,919.4210
2022-11-10T02:01:57.241Z,914.3840
2022-11-10T02:02:08.279Z,907.5460
2022-11-10T02:02:19.468Z,911.8850
2022-11-10T02:02:30.681Z,911.8850
2022-11-10T02:02:41.867Z,911.8850
2022-11-10T02:02:52.909Z,910.6410
2022-11-10T02:03:03.959Z,909.4010
2022-11-10T02:03:15.148Z,913.1330
2022-11-10T02:03:26.351Z,911.8850
2022-11-10T02:03:37.548Z,915.6380
2022-11-10T02:03:48.748Z,911.8850
2022-11-10T02:03:59.798Z,905.6990
2022-11-10T02:04:10.830Z,908.7810
2022-11-10T02:04:22.030Z,913.1330
2022-11-10T02:04:33.229Z,913.7580
2022-11-10T02:04:44.433Z,908.7810
2022-11-10T02:04:55.628Z,913.7580
2022-11-10T02:05:06.831Z,911.8850
2022-11-10T02:05:18.034Z,906.9290
2022-11-10T02:05:29.248Z,915.0100
2022-11-10T02:05:40.307Z,909.4010
2022-11-10T02:05:51.368Z,912.5090
2022-11-10T02:06:02.511Z,904.4720
2022-11-10T02:06:13.548Z,907.5460
2022-11-10T02:06:24.597Z,903.8590
2022-11-10T02:06:35.824Z,911.2630
2022-11-10T02:06:46.904Z,907.5460
2022-11-10T02:06:58.058Z,911.2630
2022-11-10T02:07:09.141Z,909.4010
2022-11-10T02:07:20.168Z,911.2630
2022-11-10T02:07:31.208Z,908.7810
2022-11-10T02:07:42.347Z,909.4010
2022-11-10T02:07:53.546Z,911.8850
2022-11-10T02:08:04.748Z,914.3840
2022-11-10T02:08:15.958Z,909.4010
2022-11-10T02:08:27.037Z,909.4010
2022-11-10T02:08:38.115Z,906.9290
2022-11-10T02:08:49.228Z,910.6410
2022-11-10T02:09:00.289Z,903.8590
2022-11-10T02:09:11.382Z,911.2630
2022-11-10T02:09:22.508Z,902.6370
2022-11-10T02:09:33.547Z,911.8850
2022-11-10T02:09:44.588Z,911.2630
2022-11-10T02:09:55.794Z,910.0200
2022-11-10T02:10:06.829Z,909.4010
2022-11-10T02:10:17.870Z,913.1330
2022-11-10T02:10:29.069Z,903.8590
2022-11-10T02:10:40.304Z,906.9290
2022-11-10T02:10:51.368Z,912.5090
2022-11-10T02:11:02.428Z,905.6990